createdAt,value
2022-10-16T00:01:23.230Z,2.75
2022-10-16T00:03:50.665Z,3.00
2022-10-16T00:06:18.803Z,2.60
2022-10-16T00:08:46.198Z,2.65
2022-10-16T00:11:18.210Z,2.85
2022-10-16T00:13:47.629Z,2.78
2022-10-16T00:16:15.068Z,2.95
2022-10-16T00:18:42.941Z,2.50
2022-10-16T00:21:21.372Z,3.50
2022-10-16T00:23:51.536Z,2.88
2022-10-16T00:26:19.022Z,2.58
2022-10-16T00:28:50.084Z,3.00
2022-10-16T00:31:17.913Z,2.67
2022-10-16T00:33:45.122Z,2.65
2022-10-16T00:36:14.176Z,2.75
2022-10-16T00:38:41.432Z,2.72
2022-10-16T00:41:10.477Z,2.80
2022-10-16T00:44:16.029Z,2.55
2022-10-16T00:46:43.307Z,2.80
2022-10-16T00:49:12.070Z,2.88
2022-10-16T00:51:43.079Z,2.40
2022-10-16T00:54:21.811Z,2.60
2022-10-16T00:56:49.072Z,2.40
2022-10-16T00:59:30.223Z,2.70
2022-10-16T01:01:57.778Z,2.50
2022-10-16T01:04:25.420Z,2.55
2022-10-16T01:06:58.677Z,2.72
2022-10-16T01:09:35.115Z,2.30
2022-10-16T01:12:17.113Z,2.22
2022-10-16T01:14:59.489Z,2.08
2022-10-16T01:17:56.782Z,2.20
2022-10-16T01:20:26.790Z,2.42
2022-10-16T01:23:16.921Z,2.10
2022-10-16T01:25:55.991Z,1.88
2022-10-16T01:28:25.279Z,2.00
2022-10-16T01:30:53.833Z,2.20
2022-10-16T01:33:36.237Z,2.10
2022-10-16T01:36:15.900Z,2.08
2022-10-16T01:38:44.222Z,2.70
2022-10-16T01:41:25.908Z,2.10
2022-10-16T01:43:58.467Z,2.15
2022-10-16T01:46:25.787Z,2.10
2022-10-16T01:48:53.025Z,2.20
2022-10-16T01:51:20.232Z,1.70
2022-10-16T01:53:54.935Z,1.80
2022-10-16T01:56:23.492Z,1.77
2022-10-16T01:58:54.130Z,1.77
2022-10-16T02:01:23.010Z,1.95
2022-10-16T02:03:52.600Z,2.03
2022-10-16T02:06:19.862Z,2.50
2022-10-16T02:08:47.157Z,1.98
2022-10-16T02:11:14.390Z,1.90
2022-10-16T02:13:57.780Z,1.70
2022-10-16T02:16:37.714Z,1.90
2022-10-16T02:19:06.021Z,1.60
2022-10-16T02:21:45.980Z,1.92
2022-10-16T02:24:36.147Z,1.70
2022-10-16T02:27:06.322Z,2.25
2022-10-16T02:29:33.540Z,2.40
2022-10-16T02:32:03.682Z,1.83
2022-10-16T02:34:31.421Z,2.00
2022-10-16T02:36:58.748Z,1.95
2022-10-16T02:39:25.978Z,1.95
2022-10-16T02:41:53.196Z,2.30
2022-10-16T02:44:20.450Z,2.50
2022-10-16T02:46:47.673Z,1.52
2022-10-16T02:49:14.873Z,1.52
2022-10-16T02:51:46.802Z,1.75
2022-10-16T02:54:14.065Z,1.88
2022-10-16T02:56:41.305Z,1.95
2022-10-16T02:59:08.607Z,1.90
2022-10-16T03:01:36.965Z,1.80
2022-10-16T03:04:04.574Z,1.80
2022-10-16T03:06:31.789Z,1.80
2022-10-16T03:09:00.168Z,1.92
2022-10-16T03:11:27.445Z,1.70
2022-10-16T03:13:54.714Z,1.77
2022-10-16T03:16:22.012Z,1.70
2022-10-16T03:18:50.653Z,1.52
2022-10-16T03:21:17.928Z,1.55
2022-10-16T03:23:45.186Z,1.80
2022-10-16T03:26:12.456Z,1.65
2022-10-16T03:28:39.805Z,1.70
2022-10-16T03:31:07.029Z,1.63
2022-10-16T03:33:34.249Z,1.52
2022-10-16T03:36:01.433Z,1.90
2022-10-16T03:38:28.668Z,1.70
2022-10-16T03:40:55.885Z,1.63
2022-10-16T03:43:23.737Z,1.92
2022-10-16T03:45:53.921Z,1.63
2022-10-16T03:48:21.159Z,1.90
2022-10-16T03:50:49.290Z,1.73
2022-10-16T03:53:16.563Z,1.58
2022-10-16T03:55:44.053Z,1.88
2022-10-16T03:58:11.863Z,2.20
2022-10-16T04:00:45.925Z,1.75
2022-10-16T04:03:13.167Z,2.15
2022-10-16T04:05:40.582Z,2.53
2022-10-16T04:08:07.957Z,1.73
2022-10-16T04:10:35.189Z,2.22
2022-10-16T04:13:02.477Z,2.00
2022-10-16T04:15:29.701Z,1.67
2022-10-16T04:17:56.984Z,1.90
2022-10-16T04:20:24.227Z,1.90
2022-10-16T04:22:51.444Z,1.90
2022-10-16T04:25:18.630Z,1.98
2022-10-16T04:27:46.295Z,1.70
2022-10-16T04:30:13.986Z,1.90
2022-10-16T04:32:41.738Z,2.28
2022-10-16T04:35:09.423Z,2.10
2022-10-16T04:37:36.603Z,2.97
2022-10-16T04:40:04.269Z,2.08
2022-10-16T04:42:31.485Z,2.00
2022-10-16T04:44:58.725Z,1.88
2022-10-16T04:47:26.140Z,2.03
2022-10-16T04:49:53.445Z,1.73
2022-10-16T04:52:22.528Z,1.95
2022-10-16T04:54:51.244Z,2.00
2022-10-16T04:57:18.672Z,1.98
2022-10-16T04:59:45.914Z,2.00
2022-10-16T05:02:13.496Z,2.80
2022-10-16T05:04:40.787Z,1.90
2022-10-16T05:07:08.049Z,2.05
2022-10-16T05:09:35.289Z,2.10
2022-10-16T05:12:04.461Z,2.00
2022-10-16T05:14:32.127Z,1.98
2022-10-16T05:17:00.817Z,2.00
2022-10-16T05:19:29.032Z,1.70
2022-10-16T05:21:57.015Z,2.28
2022-10-16T05:24:24.500Z,2.63
2022-10-16T05:26:52.247Z,1.98
2022-10-16T05:29:19.648Z,1.90
2022-10-16T05:31:46.862Z,2.10
2022-10-16T05:34:14.110Z,1.80
2022-10-16T05:36:41.367Z,1.88
2022-10-16T05:39:08.545Z,1.95
2022-10-16T05:41:35.855Z,1.88
2022-10-16T05:44:06.538Z,1.92
2022-10-16T05:46:34.080Z,1.60
2022-10-16T05:49:01.327Z,1.70
2022-10-16T05:51:28.549Z,1.75
2022-10-16T05:53:55.828Z,1.90
2022-10-16T05:56:23.144Z,2.20
2022-10-16T05:58:50.370Z,2.03
2022-10-16T06:01:19.097Z,2.15
2022-10-16T06:03:46.482Z,1.90
2022-10-16T06:06:18.596Z,2.00
2022-10-16T06:08:46.416Z,2.20
2022-10-16T06:11:22.523Z,1.92
2022-10-16T06:13:53.550Z,2.00
2022-10-16T06:16:20.766Z,2.15
2022-10-16T06:18:48.349Z,2.05
2022-10-16T06:21:19.847Z,2.30
2022-10-16T06:23:47.236Z,2.33
2022-10-16T06:26:16.138Z,1.95
2022-10-16T06:28:43.581Z,1.95
2022-10-16T06:31:11.146Z,2.20
2022-10-16T06:33:38.589Z,2.70
2022-10-16T06:36:15.042Z,2.20
2022-10-16T06:38:42.550Z,2.30
2022-10-16T06:41:12.137Z,2.20
2022-10-16T06:43:39.378Z,2.72
2022-10-16T06:46:08.841Z,2.50
2022-10-16T06:48:36.235Z,2.47
2022-10-16T06:53:39.991Z,2.50
2022-10-16T06:56:22.829Z,2.40
2022-10-16T06:58:51.008Z,2.42
2022-10-16T07:01:19.887Z,2.75
2022-10-16T07:03:47.305Z,2.60
2022-10-16T07:06:16.334Z,2.50
2022-10-16T07:08:44.453Z,2.90
2022-10-16T07:11:19.388Z,2.67
2022-10-16T07:13:50.892Z,2.35
2022-10-16T07:16:24.990Z,2.95
2022-10-16T07:18:55.363Z,4.15
2022-10-16T07:21:23.775Z,2.97
2022-10-16T07:23:51.922Z,3.17
2022-10-16T07:26:19.659Z,2.97
2022-10-16T07:28:46.980Z,3.63
2022-10-16T07:31:15.155Z,2.97
2022-10-16T07:33:44.109Z,3.17
2022-10-16T07:36:15.911Z,2.88
2022-10-16T07:38:43.946Z,3.20
2022-10-16T07:41:13.283Z,3.20
2022-10-16T07:43:40.693Z,3.10
2022-10-16T07:46:07.954Z,3.10
2022-10-16T07:48:35.877Z,3.40
2022-10-16T07:51:04.760Z,2.90
2022-10-16T07:53:32.336Z,3.20
2022-10-16T07:56:00.553Z,2.38
2022-10-16T07:58:28.899Z,2.88
2022-10-16T08:00:56.795Z,2.70
2022-10-16T08:03:24.918Z,2.80
2022-10-16T08:05:52.375Z,2.80
2022-10-16T08:08:19.832Z,2.53
2022-10-16T08:10:47.158Z,2.47
2022-10-16T08:13:16.304Z,2.97
2022-10-16T08:15:44.392Z,3.40
2022-10-16T08:18:12.461Z,3.08
2022-10-16T08:20:40.038Z,2.70
2022-10-16T08:23:07.798Z,2.60
2022-10-16T08:25:38.347Z,2.60
2022-10-16T08:28:06.702Z,2.55
2022-10-16T08:30:34.421Z,2.80
2022-10-16T08:33:02.081Z,2.40
2022-10-16T08:35:29.331Z,2.42
2022-10-16T08:37:56.578Z,2.10
2022-10-16T08:40:27.700Z,2.25
2022-10-16T08:42:54.935Z,2.20
2022-10-16T08:45:36.857Z,2.25
2022-10-16T08:48:36.382Z,2.20
2022-10-16T08:51:04.234Z,2.20
2022-10-16T08:53:34.780Z,2.30
2022-10-16T08:56:02.124Z,2.25
2022-10-16T08:58:30.331Z,2.13
2022-10-16T09:00:59.632Z,2.13
2022-10-16T09:03:48.621Z,2.17
2022-10-16T09:06:48.473Z,2.13
2022-10-16T09:09:22.335Z,1.92
2022-10-16T09:11:59.476Z,2.20
2022-10-16T09:14:46.564Z,2.15
2022-10-16T09:17:35.935Z,2.50
2022-10-16T09:20:24.855Z,2.05
2022-10-16T09:22:58.989Z,2.00
2022-10-16T09:25:27.181Z,2.03
2022-10-16T09:27:54.822Z,2.10
2022-10-16T09:33:04.478Z,1.95
2022-10-16T09:35:43.507Z,1.95
2022-10-16T09:38:21.100Z,1.90
2022-10-16T09:40:52.118Z,1.98
2022-10-16T09:43:49.030Z,1.92
2022-10-16T09:46:26.740Z,2.10
2022-10-16T09:48:56.239Z,2.13
2022-10-16T09:51:29.290Z,2.13
2022-10-16T09:54:16.089Z,2.00
2022-10-16T09:56:46.547Z,2.28
2022-10-16T09:59:18.326Z,2.00
2022-10-16T10:01:54.661Z,1.98
2022-10-16T10:04:23.435Z,2.35
2022-10-16T10:06:55.413Z,1.80
2022-10-16T10:09:34.063Z,2.00
2022-10-16T10:14:37.289Z,2.20
2022-10-16T10:17:07.661Z,2.10
2022-10-16T10:19:43.516Z,1.95
2022-10-16T10:22:30.602Z,1.88
2022-10-16T10:25:21.598Z,1.90
2022-10-16T10:28:08.239Z,1.60
2022-10-16T10:30:41.479Z,1.95
2022-10-16T10:33:17.541Z,2.20
2022-10-16T10:36:03.714Z,1.80
2022-10-16T10:38:57.482Z,1.70
2022-10-16T10:41:31.604Z,1.67
2022-10-16T10:44:13.232Z,1.88
2022-10-16T10:46:47.187Z,1.50
2022-10-16T10:49:27.358Z,1.67
2022-10-16T10:52:14.921Z,1.45
2022-10-16T10:55:14.632Z,1.77
2022-10-16T10:58:04.359Z,1.50
2022-10-16T11:01:02.040Z,1.60
2022-10-16T11:03:59.488Z,1.48
2022-10-16T11:06:27.923Z,1.40
2022-10-16T11:09:01.388Z,1.30
2022-10-16T11:11:32.867Z,1.38
2022-10-16T11:14:11.266Z,1.50
2022-10-16T11:16:41.282Z,1.60
2022-10-16T11:19:16.287Z,1.40
2022-10-16T11:22:04.323Z,1.40
2022-10-16T11:24:42.774Z,1.50
2022-10-16T11:27:12.855Z,1.48
2022-10-16T11:30:04.542Z,1.15
2022-10-16T11:32:35.135Z,1.30
2022-10-16T11:35:16.396Z,0.90
2022-10-16T11:37:44.606Z,0.80
2022-10-16T11:40:25.374Z,1.13
2022-10-16T11:43:01.139Z,0.93
2022-10-16T11:45:39.683Z,1.30
2022-10-16T11:48:39.247Z,1.00
2022-10-16T11:51:17.196Z,0.90
2022-10-16T11:53:54.640Z,0.98
2022-10-16T11:56:22.278Z,0.88
2022-10-16T11:59:00.481Z,1.23
2022-10-16T12:01:53.946Z,1.20
2022-10-16T12:04:46.133Z,1.10
2022-10-16T12:07:18.485Z,1.20
2022-10-16T12:09:45.825Z,1.20
2022-10-16T12:12:29.106Z,1.10
2022-10-16T12:15:17.855Z,1.20
2022-10-16T12:17:49.785Z,1.30
2022-10-16T12:20:33.854Z,1.38
2022-10-16T12:23:05.766Z,1.35
2022-10-16T12:25:34.587Z,1.15
2022-10-16T12:28:21.683Z,1.30
2022-10-16T12:31:16.093Z,1.40
2022-10-16T12:33:53.984Z,1.30
2022-10-16T12:36:30.227Z,1.35
2022-10-16T12:38:57.740Z,1.15
2022-10-16T12:41:35.509Z,1.13
2022-10-16T12:44:03.137Z,1.30
2022-10-16T12:46:30.412Z,1.48
2022-10-16T12:49:13.580Z,1.70
2022-10-16T12:51:41.316Z,1.15
2022-10-16T12:54:15.204Z,0.90
2022-10-16T12:56:58.515Z,1.13
2022-10-16T12:59:50.566Z,0.77
2022-10-16T13:02:39.658Z,1.20
2022-10-16T13:05:45.777Z,1.00
2022-10-16T13:08:39.579Z,2.88
2022-10-16T13:11:22.282Z,1.10
2022-10-16T13:14:02.743Z,1.17
2022-10-16T13:16:41.908Z,0.95
2022-10-16T13:19:21.267Z,0.90
2022-10-16T13:22:26.165Z,1.13
2022-10-16T13:25:03.828Z,0.98
2022-10-16T13:27:56.662Z,1.20
2022-10-16T13:30:50.871Z,0.70
2022-10-16T13:33:37.371Z,0.68
2022-10-16T13:36:05.160Z,0.90
2022-10-16T13:38:34.310Z,1.67
2022-10-16T13:41:23.486Z,1.75
2022-10-16T13:43:51.698Z,1.00
2022-10-16T13:46:19.695Z,0.70
2022-10-16T13:49:00.610Z,0.70
2022-10-16T13:51:28.198Z,1.60
2022-10-16T13:53:56.897Z,1.10
2022-10-16T13:56:28.204Z,1.02
2022-10-16T13:59:06.273Z,0.80
2022-10-16T14:01:43.880Z,0.90
2022-10-16T14:04:12.461Z,1.08
2022-10-16T14:06:45.218Z,1.02
2022-10-16T14:09:30.509Z,0.80
2022-10-16T14:12:02.469Z,0.95
2022-10-16T14:14:36.210Z,0.80
2022-10-16T14:17:04.189Z,0.85
2022-10-16T14:19:31.417Z,1.00
2022-10-16T14:21:58.645Z,1.17
2022-10-16T14:24:33.844Z,0.88
2022-10-16T14:27:01.413Z,1.52
2022-10-16T14:29:29.680Z,0.90
2022-10-16T14:32:00.683Z,2.30
2022-10-16T14:34:33.796Z,1.10
2022-10-16T14:39:36.242Z,0.95
2022-10-16T14:42:03.516Z,0.70
2022-10-16T14:44:33.786Z,2.63
2022-10-16T14:47:30.833Z,1.02
2022-10-16T14:50:00.005Z,2.05
2022-10-16T14:52:27.224Z,1.10
2022-10-16T14:54:57.454Z,1.00
2022-10-16T14:57:26.684Z,1.13
2022-10-16T14:59:54.017Z,1.15
2022-10-16T15:02:32.347Z,1.08
2022-10-16T15:07:27.991Z,0.98
2022-10-16T15:09:57.067Z,1.20
2022-10-16T15:12:24.336Z,1.13
2022-10-16T15:14:51.620Z,1.77
2022-10-16T15:17:21.452Z,1.58
2022-10-16T15:19:49.529Z,1.38
2022-10-16T15:22:16.821Z,1.10
2022-10-16T15:24:44.215Z,1.27
2022-10-16T15:27:11.587Z,1.48
2022-10-16T15:29:38.804Z,1.50
2022-10-16T15:32:06.049Z,1.70
2022-10-16T15:34:33.248Z,1.20
2022-10-16T15:37:03.159Z,2.38
2022-10-16T15:39:30.432Z,1.70
2022-10-16T15:41:58.065Z,1.35
2022-10-16T15:44:30.586Z,1.40
2022-10-16T15:46:57.922Z,1.67
2022-10-16T15:49:25.199Z,1.48
2022-10-16T15:51:54.033Z,1.65
2022-10-16T15:54:23.651Z,1.80
2022-10-16T15:56:50.859Z,1.50
2022-10-16T15:59:21.361Z,1.70
2022-10-16T16:01:48.691Z,1.65
2022-10-16T16:04:42.272Z,1.48
2022-10-16T16:07:08.190Z,1.50
2022-10-16T16:09:35.368Z,1.80
2022-10-16T16:12:02.703Z,1.80
2022-10-16T16:14:29.936Z,1.90
2022-10-16T16:16:58.098Z,1.42
2022-10-16T16:19:25.308Z,1.85
2022-10-16T16:21:52.614Z,1.40
2022-10-16T16:24:20.302Z,2.08
2022-10-16T16:26:47.505Z,1.95
2022-10-16T16:29:15.847Z,1.60
2022-10-16T16:31:43.429Z,1.65
2022-10-16T16:34:11.483Z,1.73
2022-10-16T16:36:39.741Z,1.70
2022-10-16T16:39:08.244Z,2.30
2022-10-16T16:41:35.587Z,1.85
2022-10-16T16:44:04.549Z,2.10
2022-10-16T16:46:33.167Z,2.30
2022-10-16T16:49:00.714Z,2.50
2022-10-16T16:51:28.032Z,2.38
2022-10-16T16:53:55.387Z,2.40
2022-10-16T16:56:23.378Z,2.58
2022-10-16T16:58:51.468Z,2.67
2022-10-16T17:01:20.347Z,2.50
2022-10-16T17:03:50.766Z,2.40
2022-10-16T17:06:20.858Z,3.00
2022-10-16T17:08:48.997Z,2.92
2022-10-16T17:11:18.448Z,2.80
2022-10-16T17:13:45.716Z,2.70
2022-10-16T17:16:13.363Z,3.00
2022-10-16T17:18:41.775Z,3.00
2022-10-16T17:21:09.344Z,2.80
2022-10-16T17:23:37.168Z,2.97
2022-10-16T17:26:08.447Z,2.78
2022-10-16T17:28:35.815Z,2.92
2022-10-16T17:33:39.036Z,2.60
2022-10-16T17:36:06.654Z,2.53
2022-10-16T17:38:34.173Z,2.60
2022-10-16T17:41:14.707Z,2.78
2022-10-16T17:43:41.949Z,2.80
2022-10-16T17:46:09.468Z,3.08
2022-10-16T17:48:40.342Z,3.30
2022-10-16T17:51:08.081Z,3.00
2022-10-16T17:53:35.659Z,3.22
2022-10-16T17:56:04.990Z,3.38
2022-10-16T17:58:32.508Z,3.45
2022-10-16T18:00:59.848Z,3.20
2022-10-16T18:03:27.193Z,3.22
2022-10-16T18:05:55.656Z,3.20
2022-10-16T18:08:26.391Z,3.30
2022-10-16T18:10:56.076Z,3.50
2022-10-16T18:13:23.875Z,3.45
2022-10-16T18:16:06.101Z,3.33
2022-10-16T18:18:33.299Z,3.65
2022-10-16T18:21:01.746Z,3.60
2022-10-16T18:23:29.112Z,3.90
2022-10-16T18:25:56.792Z,3.35
2022-10-16T18:28:24.160Z,3.55
2022-10-16T18:30:58.586Z,3.47
2022-10-16T18:33:26.016Z,3.38
2022-10-16T18:35:53.371Z,3.30
2022-10-16T18:38:20.791Z,3.42
2022-10-16T18:40:48.132Z,3.30
2022-10-16T18:43:15.348Z,3.67
2022-10-16T18:45:42.702Z,3.33
2022-10-16T18:48:09.952Z,3.30
2022-10-16T18:50:37.265Z,3.45
2022-10-16T18:53:05.039Z,3.85
2022-10-16T18:55:33.780Z,3.80
2022-10-16T18:58:01.009Z,3.55
2022-10-16T19:00:28.377Z,3.65
2022-10-16T19:02:55.807Z,3.85
2022-10-16T19:05:23.518Z,3.70
2022-10-16T19:07:50.840Z,3.75
2022-10-16T19:10:18.081Z,4.13
2022-10-16T19:12:45.281Z,4.20
2022-10-16T19:15:12.617Z,4.40
2022-10-16T19:17:39.953Z,4.50
2022-10-16T19:20:07.745Z,4.32
2022-10-16T19:22:58.734Z,5.13
2022-10-16T19:25:27.958Z,4.43
2022-10-16T19:27:55.270Z,4.55
2022-10-16T19:30:23.901Z,4.68
2022-10-16T19:32:52.922Z,4.50
2022-10-16T19:35:20.176Z,4.97
2022-10-16T19:37:50.682Z,5.00
2022-10-16T19:40:18.081Z,4.47
2022-10-16T19:42:45.365Z,4.40
2022-10-16T19:45:12.609Z,5.13
2022-10-16T19:47:41.944Z,4.35
2022-10-16T19:50:10.170Z,4.93
2022-10-16T19:52:37.457Z,4.75
2022-10-16T19:55:05.852Z,4.65
2022-10-16T20:00:07.112Z,4.50
2022-10-16T20:02:35.725Z,4.93
2022-10-16T20:05:02.967Z,5.07
2022-10-16T20:07:32.618Z,5.10
2022-10-16T20:10:02.065Z,5.13
2022-10-16T20:12:29.318Z,5.20
2022-10-16T20:14:56.506Z,5.22
2022-10-16T20:17:23.823Z,4.25
2022-10-16T20:19:51.020Z,4.47
2022-10-16T20:22:18.229Z,4.68
2022-10-16T20:24:45.562Z,5.05
2022-10-16T20:27:12.747Z,5.03
2022-10-16T20:29:39.939Z,5.55
2022-10-16T20:32:07.308Z,5.10
2022-10-16T20:34:34.549Z,4.57
2022-10-16T20:37:01.862Z,4.07
2022-10-16T20:39:29.074Z,3.80
2022-10-16T20:41:56.301Z,4.20
2022-10-16T20:44:23.557Z,3.78
2022-10-16T20:46:50.789Z,4.38
2022-10-16T20:49:35.824Z,4.80
2022-10-16T20:52:05.336Z,4.45
2022-10-16T20:54:32.613Z,4.80
2022-10-16T20:56:59.793Z,5.45
2022-10-16T20:59:27.048Z,4.70
2022-10-16T21:01:54.411Z,4.60
2022-10-16T21:04:21.781Z,4.75
2022-10-16T21:06:49.463Z,5.32
2022-10-16T21:09:16.671Z,5.32
2022-10-16T21:11:43.883Z,4.95
2022-10-16T21:14:11.092Z,5.18
2022-10-16T21:16:38.378Z,4.93
2022-10-16T21:19:05.620Z,5.00
2022-10-16T21:21:35.373Z,4.70
2022-10-16T21:24:02.683Z,4.65
2022-10-16T21:26:30.218Z,4.78
2022-10-16T21:28:59.340Z,4.82
2022-10-16T21:31:26.745Z,4.90
2022-10-16T21:33:55.248Z,5.65
2022-10-16T21:36:26.921Z,5.60
2022-10-16T21:38:54.391Z,5.20
2022-10-16T21:41:27.176Z,4.95
2022-10-16T21:43:55.038Z,5.32
2022-10-16T21:46:23.847Z,5.10
2022-10-16T21:48:54.854Z,4.43
2022-10-16T21:51:26.473Z,5.22
2022-10-16T21:53:54.636Z,5.22
2022-10-16T21:56:21.965Z,5.15
2022-10-16T21:58:49.180Z,5.00
2022-10-16T22:01:18.075Z,4.93
2022-10-16T22:03:45.696Z,4.80
2022-10-16T22:06:13.939Z,4.60
2022-10-16T22:08:41.370Z,4.40
2022-10-16T22:11:13.323Z,4.72
2022-10-16T22:13:40.649Z,4.45
2022-10-16T22:16:09.187Z,4.70
2022-10-16T22:18:36.722Z,4.90
2022-10-16T22:21:05.310Z,4.60
2022-10-16T22:23:32.542Z,4.35
2022-10-16T22:26:00.777Z,4.15
2022-10-16T22:28:28.069Z,4.57
2022-10-16T22:30:55.336Z,4.63
2022-10-16T22:33:22.585Z,4.60
2022-10-16T22:35:49.862Z,4.40
2022-10-16T22:38:17.049Z,4.40
2022-10-16T22:40:44.260Z,4.40
2022-10-16T22:43:11.518Z,4.57
2022-10-16T22:45:38.740Z,4.50
2022-10-16T22:48:06.200Z,4.30
2022-10-16T22:50:33.499Z,4.35
2022-10-16T22:53:00.733Z,4.20
2022-10-16T22:55:27.979Z,4.22
2022-10-16T22:57:58.196Z,3.80
2022-10-16T23:00:25.421Z,4.07
2022-10-16T23:02:52.678Z,3.50
2022-10-16T23:05:19.933Z,3.58
2022-10-16T23:07:47.212Z,3.80
2022-10-16T23:10:14.387Z,3.85
2022-10-16T23:12:41.618Z,3.72
2022-10-16T23:15:09.096Z,3.55
2022-10-16T23:17:36.269Z,3.58
2022-10-16T23:20:04.325Z,3.78
2022-10-16T23:22:31.559Z,3.53
2022-10-16T23:24:58.759Z,3.30
2022-10-16T23:27:25.969Z,3.22
2022-10-16T23:29:53.261Z,3.30
2022-10-16T23:32:20.546Z,3.20
2022-10-16T23:34:47.751Z,3.58
2022-10-16T23:37:15.005Z,3.42
2022-10-16T23:39:42.296Z,3.13
2022-10-16T23:42:09.529Z,3.28
2022-10-16T23:44:37.443Z,3.35
2022-10-16T23:47:04.692Z,3.30
2022-10-16T23:49:31.960Z,3.83
2022-10-16T23:51:59.220Z,3.30
2022-10-16T23:54:26.467Z,3.30
2022-10-16T23:56:53.649Z,3.00
2022-10-16T23:59:20.965Z,3.22
